Onweer radar more information blitzortung!


Regen radar more information rain snow radar


Meteo Sauwerd

Weerstation Alkmaar Centrum

Weerstation Luyksgestel

Website Noardburgum

Weerstation Noordbergum



Het weer levert geen direct gevaar op.    Er zijn geen waarschuwingen afgegeven.

METAR rapporten vliegvelden

   
EHLW - Leeuwarden Rnlaf, Netherlands
Afstand tot: W 17 km
Gewijzigd: 18-04-2019 13:55
Helder  
Helder  
   Wind: Oosten 29.6 km/h
Wind: Oosten 29.6 km/h
Temperatuur: 19°C
Dauwpunt: 5°C
Vochtigheid: 40%
Barometer: 1027 hPa
Bewolking: Helder
Zicht: meer dan 10 km
Bewolking: Helder
EHLW 181155Z AUTO 09016KT 020V180 9999 NCD 19/05 Q1027 BLU 08014KT CAVOK
EHMA - Awg-1 Sea, Netherlands
Afstand tot: N 31 km
Gewijzigd: 18-04-2019 13:55
Helder  
Helder  
   Wind: Oosten 33.3 km/h
Wind: Oosten 33.3 km/h
Temperatuur: 10°C
Voelt als: 6°C
Dauwpunt: 7°C
Vochtigheid: 82%
Barometer: 1028 hPa
Bewolking: Helder
Zicht: meer dan 10 km
Bewolking: Helder
EHMA 181155Z AUTO 08018KT 010V130 9999 NCD 10/07 Q1028 W///H///
EHGG - Groningen/Eelde, Netherlands
Afstand tot: OZO 40 km
Gewijzigd: 18-04-2019 14:25
Gedeeltelijk bewolkt  
Gedeeltelijk bewolkt  
   Wind: Oosten 22.2 km/h
Wind: Oosten 22.2 km/h
Temperatuur: 20°C
Dauwpunt: 4°C
Vochtigheid: 35%
Barometer: 1027 hPa
Bewolking: Gedeeltelijk bewolkt
Zicht: meer dan 10 km
Bewolking: Gedeeltelijk bewolkt
EHGG 181225Z AUTO 10012KT 070V140 9999 NSC 20/04 Q1027 NOSIG
EHVL - Vlieland Island, Netherlands
Afstand tot: W 72 km
Gewijzigd: 18-04-2019 14:25
Gedeeltelijk bewolkt  
Gedeeltelijk bewolkt  
   Wind: ONO 35.2 km/h
Wind: ONO 35.2 km/h
Temperatuur: 17°C
Dauwpunt: 9°C
Vochtigheid: 59%
Barometer: 1027 hPa
Bewolking: Gedeeltelijk bewolkt
Zicht: meer dan 10 km
Bewolking: Gedeeltelijk bewolkt 26000 ft
EHVL 181225Z AUTO 07019KT 9999 SCT260 17/09 Q1027 BLU
EHMG - L9-Ff-1 Sea, Netherlands
Afstand tot: WNW 81 km
Gewijzigd: 18-04-2019 13:55
Helder  
Helder  
   Wind: Oosten 53.7 km/h
Wind: Oosten 53.7 km/h
Temperatuur: 10°C
Voelt als: 6°C
Dauwpunt: 7°C
Vochtigheid: 82%
Barometer: 1028 hPa
Bewolking: Helder
Zicht: meer dan 10 km
Bewolking: Helder
EHMG 181155Z AUTO 09029KT 9999 NCD 10/07 Q1028 W///H///
EHKD - De Kooy (navy), Netherlands
Afstand tot: WZW 89 km
Gewijzigd: 18-04-2019 13:55
Grotendeels bewolkt  
Grotendeels bewolkt  
   Wind: Oosten 20.4 km/h
Wind: Oosten 20.4 km/h
Temperatuur: 17°C
Dauwpunt: 10°C
Vochtigheid: 64%
Barometer: 1027 hPa
Bewolking: Grotendeels bewolkt
Zicht: meer dan 10 km
Bewolking: Grotendeels bewolkt 23000 ft,
Grotendeels bewolkt 29000 ft
EHKD 181155Z AUTO 08011KT 050V110 9999 BKN230 BKN290 17/10 Q1027 BLU 09010KT CAVOK

Script ontwikkeld door  Saratoga-weather.org Aangepast voor de template door  Weerstation Leuven

U vindt ons ook hier:

Het Weer Aktueel

UK Metoffice

European Weather Network

Weather Underground

AWEKAS

Citizen Weather Observer Program (CWOP)

HAMweather, WeatherForYou, PWS Weather

Apparatuur in gebruik:

Weerstation
Davis Vantage pro 2

Weerprogramma
Meteobridge

Weercomputer
TP-Link TL-WR703N

Webleverancier
Versio

Davis Vantage pro 2

Meteobridge

TP-Link TL-WR703N

Versio